Time;durP1;ratioP1;P1;durP2;ratioP2;P2;SDS_P1;SDS_P2;PMS_P1;PMS_P2;Temp;Humidity;BMP_temperature;BMP_pressure;BME280_temperature;BME280_humidity;BME280_pressure;Samples;Min_cycle;Max_cycle;Signal;HPM_P1;HPM_P2
2022/08/07 00:00:54;;;;;;;6.03;3.10;;;28.80;99.90;;;;;;4112056;28;20043;-65
2022/08/07 00:03:04;;;;;;;4.93;2.70;;;28.80;99.90;;;;;;4098546;28;20083;-67
2022/08/07 00:05:13;;;;;;;9.73;3.13;;;28.90;99.90;;;;;;4115982;28;20130;-67
2022/08/07 00:07:18;;;;;;;6.35;2.88;;;28.90;99.90;;;;;;4109190;28;20055;-66
2022/08/07 00:09:24;;;;;;;6.97;2.60;;;29.00;99.90;;;;;;4098726;28;20709;-65
2022/08/07 00:11:38;;;;;;;5.60;2.88;;;29.00;99.90;;;;;;4102785;28;20409;-66
2022/08/07 00:13:58;;;;;;;7.68;2.50;;;29.00;99.90;;;;;;4111197;28;20127;-67
2022/08/07 00:16:07;;;;;;;4.72;2.58;;;29.00;99.90;;;;;;4112728;28;20073;-67
2022/08/07 00:18:22;;;;;;;4.55;2.80;;;29.10;99.90;;;;;;4115473;28;20043;-67
2022/08/07 00:20:27;;;;;;;6.07;2.83;;;29.10;99.90;;;;;;4097354;28;20142;-67
2022/08/07 00:22:37;;;;;;;4.20;2.58;;;29.10;99.90;;;;;;4115344;28;20150;-67
2022/08/07 00:24:44;;;;;;;8.38;2.55;;;29.20;99.90;;;;;;4106377;28;20104;-67
2022/08/07 00:26:51;;;;;;;4.90;2.47;;;29.20;99.90;;;;;;4096298;28;20051;-66
2022/08/07 00:29:12;;;;;;;7.88;2.97;;;29.20;99.90;;;;;;4125763;28;20500;-67
2022/08/07 00:31:18;;;;;;;7.88;2.63;;;29.30;99.90;;;;;;4126413;28;20116;-65
2022/08/07 00:33:25;;;;;;;6.13;2.90;;;29.30;99.90;;;;;;4127587;28;20038;-66
2022/08/07 00:35:38;;;;;;;7.43;2.53;;;29.30;99.90;;;;;;4109373;28;20446;-65
2022/08/07 00:37:43;;;;;;;5.28;2.80;;;29.30;99.90;;;;;;4125046;28;20137;-65
2022/08/07 00:39:53;;;;;;;4.78;2.60;;;29.20;99.90;;;;;;4127362;28;20050;-66
2022/08/07 00:41:58;;;;;;;4.75;2.60;;;29.20;99.90;;;;;;4126508;28;20442;-66
2022/08/07 00:44:08;;;;;;;6.10;2.60;;;29.20;99.90;;;;;;4127570;28;20468;-65
2022/08/07 00:46:17;;;;;;;5.40;2.67;;;29.30;99.90;;;;;;4131266;28;20707;-66
2022/08/07 00:48:24;;;;;;;4.63;2.67;;;29.30;99.90;;;;;;4128919;28;20069;-67
2022/08/07 00:50:34;;;;;;;3.63;2.22;;;29.30;99.90;;;;;;4137686;28;20061;-63
2022/08/07 00:52:55;;;;;;;5.50;2.78;;;29.40;99.90;;;;;;4140282;28;20056;-67
2022/08/07 00:55:02;;;;;;;5.32;2.63;;;29.30;99.90;;;;;;4142829;28;20058;-68
2022/08/07 00:57:13;;;;;;;5.07;2.53;;;29.40;99.90;;;;;;4136785;28;20048;-67
2022/08/07 00:59:19;;;;;;;5.63;2.58;;;29.40;99.90;;;;;;4142842;28;20133;-65
2022/08/07 01:01:38;;;;;;;6.13;2.63;;;29.50;99.90;;;;;;4141047;28;20729;-66
2022/08/07 01:03:50;;;;;;;4.28;2.28;;;29.50;99.90;;;;;;4139856;28;20048;-66
2022/08/07 01:06:01;;;;;;;4.82;2.38;;;29.50;99.90;;;;;;4140484;28;20050;-67
2022/08/07 01:08:10;;;;;;;5.43;2.67;;;29.60;99.90;;;;;;4140147;28;20045;-66
2022/08/07 01:10:16;;;;;;;6.63;2.85;;;29.60;99.90;;;;;;4139436;28;20052;-66
2022/08/07 01:12:21;;;;;;;6.88;2.45;;;29.60;99.90;;;;;;4142821;28;20585;-66
2022/08/07 01:14:36;;;;;;;5.28;2.60;;;29.70;99.90;;;;;;4092006;28;20883;-67
2022/08/07 01:16:40;;;;;;;4.50;2.70;;;29.70;99.90;;;;;;4141353;28;20144;-66
2022/08/07 01:18:51;;;;;;;6.32;3.70;;;29.80;99.90;;;;;;4140203;28;20046;-66
2022/08/07 01:21:11;;;;;;;6.35;3.28;;;29.80;99.90;;;;;;4133246;28;20081;-65
2022/08/07 01:23:31;;;;;;;7.78;3.60;;;29.90;99.90;;;;;;4142654;28;20432;-65
2022/08/07 01:25:45;;;;;;;7.10;3.50;;;29.80;99.90;;;;;;4139891;28;20481;-66
2022/08/07 01:27:59;;;;;;;7.03;3.60;;;29.90;99.90;;;;;;4142826;28;20057;-68
2022/08/07 01:30:05;;;;;;;5.35;3.47;;;29.90;99.90;;;;;;4141237;28;20045;-65
2022/08/07 01:32:14;;;;;;;6.93;3.70;;;29.90;99.90;;;;;;4139206;28;20041;-66
2022/08/07 01:34:24;;;;;;;5.20;3.13;;;29.90;99.90;;;;;;4141578;28;20038;-67
2022/08/07 01:36:38;;;;;;;5.63;2.88;;;30.00;99.90;;;;;;4138693;28;20069;-66
2022/08/07 01:38:48;;;;;;;6.38;3.13;;;30.10;99.90;;;;;;4141733;28;20062;-67
2022/08/07 01:41:00;;;;;;;6.45;2.85;;;30.10;99.90;;;;;;4141790;28;20060;-66
2022/08/07 01:43:05;;;;;;;7.93;2.85;;;30.20;99.90;;;;;;4118048;28;20035;-68
2022/08/07 01:45:11;;;;;;;5.45;2.70;;;30.10;99.90;;;;;;4129225;28;20053;-66
2022/08/07 01:47:28;;;;;;;6.93;3.08;;;30.20;99.90;;;;;;4113628;28;20580;-67
2022/08/07 01:49:55;;;;;;;5.18;2.50;;;30.20;99.90;;;;;;4128381;28;20077;-66
2022/08/07 01:52:05;;;;;;;4.60;2.47;;;30.20;99.90;;;;;;4127825;28;20038;-66
2022/08/07 01:54:13;;;;;;;5.82;2.58;;;30.30;99.90;;;;;;4127615;28;20501;-66
2022/08/07 01:56:55;;;;;;;5.60;2.50;;;30.30;99.90;;;;;;4127619;28;20042;-66
2022/08/07 01:59:06;;;;;;;6.13;2.70;;;30.40;99.90;;;;;;4127192;28;20050;-66
2022/08/07 02:01:29;;;;;;;4.55;2.25;;;30.40;99.90;;;;;;4162011;28;20128;-68
2022/08/07 02:04:05;;;;;;;7.40;2.90;;;30.40;99.90;;;;;;4132534;28;20053;-68
2022/08/07 02:06:11;;;;;;;5.20;2.92;;;30.50;99.90;;;;;;4128975;28;20130;-65
2022/08/07 02:08:41;;;;;;;4.03;2.35;;;30.50;99.90;;;;;;4127981;28;20046;-67
2022/08/07 02:10:51;;;;;;;3.88;2.13;;;30.60;99.90;;;;;;4131049;28;20047;-66
2022/08/07 02:13:02;;;;;;;3.63;2.28;;;30.60;99.90;;;;;;4130508;28;20054;-68
2022/08/07 02:15:20;;;;;;;4.95;2.30;;;30.50;99.90;;;;;;4161522;28;20041;-67
2022/08/07 02:17:26;;;;;;;3.28;2.22;;;30.70;99.90;;;;;;4132660;28;20050;-67
2022/08/07 02:19:37;;;;;;;4.68;2.30;;;30.80;99.90;;;;;;4133893;28;20546;-68
2022/08/07 02:22:01;;;;;;;5.60;2.47;;;30.80;99.90;;;;;;4133746;28;20045;-67
2022/08/07 02:24:11;;;;;;;4.50;2.47;;;30.90;99.90;;;;;;4163927;28;20045;-67
2022/08/07 02:26:20;;;;;;;4.00;2.05;;;30.90;99.90;;;;;;4148342;28;20051;-68
2022/08/07 02:28:41;;;;;;;4.90;2.53;;;31.10;99.90;;;;;;4134753;28;22436;-67
2022/08/07 02:30:57;;;;;;;5.53;2.30;;;31.10;99.90;;;;;;4118168;28;20097;-66
2022/08/07 02:33:08;;;;;;;4.70;2.22;;;31.10;99.90;;;;;;4102664;28;20098;-67
2022/08/07 02:35:17;;;;;;;5.60;2.40;;;31.10;99.90;;;;;;4081115;29;20240;-67
2022/08/07 02:37:43;;;;;;;3.80;2.28;;;31.10;99.90;;;;;;4085267;29;20110;-66
2022/08/07 02:39:50;;;;;;;8.30;2.35;;;30.90;99.90;;;;;;4071114;29;20060;-68
2022/08/07 02:42:18;;;;;;;4.85;2.50;;;31.00;99.90;;;;;;4096484;28;20054;-65
2022/08/07 02:44:24;;;;;;;6.10;2.35;;;31.10;99.90;;;;;;4080590;29;20054;-66
2022/08/07 02:46:39;;;;;;;6.05;2.38;;;31.10;99.90;;;;;;4111661;28;20058;-68
2022/08/07 02:48:56;;;;;;;4.28;2.40;;;31.00;99.90;;;;;;4096724;28;20153;-67
2022/08/07 02:51:08;;;;;;;4.68;2.42;;;31.00;99.20;;;;;;4115750;28;20054;-67
2022/08/07 02:53:34;;;;;;;4.68;2.65;;;31.00;99.40;;;;;;4132078;28;20539;-67
2022/08/07 02:55:46;;;;;;;5.25;2.50;;;31.00;99.40;;;;;;4130570;28;20051;-68
2022/08/07 02:58:10;;;;;;;9.27;2.35;;;31.10;99.80;;;;;;4135032;28;20038;-65
2022/08/07 03:00:16;;;;;;;5.93;2.90;;;31.10;99.30;;;;;;4140164;28;20729;-67
2022/08/07 03:02:23;;;;;;;8.82;2.47;;;31.10;99.90;;;;;;4137525;28;20136;-67
2022/08/07 03:04:29;;;;;;;5.05;2.30;;;31.30;99.70;;;;;;4136751;28;20069;-66
2022/08/07 03:06:35;;;;;;;5.90;2.65;;;31.40;99.50;;;;;;4136408;28;20057;-66
2022/08/07 03:08:43;;;;;;;5.15;2.50;;;31.30;98.90;;;;;;4119870;28;20042;-67
2022/08/07 03:10:48;;;;;;;6.13;2.50;;;31.40;98.90;;;;;;4103088;28;20051;-66
2022/08/07 03:12:59;;;;;;;4.85;2.40;;;31.30;97.90;;;;;;4134201;28;20050;-67
2022/08/07 03:15:07;;;;;;;3.83;2.28;;;31.30;98.20;;;;;;4114345;28;20058;-66
2022/08/07 03:17:14;;;;;;;6.47;2.35;;;31.40;98.00;;;;;;4132127;28;20070;-66
2022/08/07 03:19:19;;;;;;;5.65;2.40;;;31.50;98.10;;;;;;4128511;28;20842;-66
2022/08/07 03:21:26;;;;;;;4.03;2.35;;;31.60;98.20;;;;;;4132021;28;20108;-66
2022/08/07 03:23:38;;;;;;;5.15;2.25;;;31.60;98.20;;;;;;4133899;28;20097;-69
2022/08/07 03:26:05;;;;;;;4.40;2.40;;;31.40;97.90;;;;;;4130898;28;20497;-68
2022/08/07 03:28:26;;;;;;;3.85;2.00;;;31.30;97.60;;;;;;4128424;28;20121;-69
2022/08/07 03:30:43;;;;;;;4.50;2.30;;;31.40;97.40;;;;;;4128619;28;20046;-69
2022/08/07 03:32:49;;;;;;;3.90;2.00;;;31.50;97.30;;;;;;4112059;28;20074;-68
2022/08/07 03:35:12;;;;;;;5.07;2.28;;;31.50;96.50;;;;;;4126494;28;20066;-66
2022/08/07 03:37:22;;;;;;;3.90;2.17;;;31.50;96.80;;;;;;4125799;28;20054;-68
2022/08/07 03:39:32;;;;;;;6.60;2.70;;;31.60;97.00;;;;;;4128727;28;20108;-69
2022/08/07 03:42:00;;;;;;;3.92;2.33;;;31.70;97.10;;;;;;4110261;28;20592;-68
2022/08/07 03:44:04;;;;;;;5.13;2.35;;;31.60;97.00;;;;;;4091926;28;20051;-67
2022/08/07 03:46:12;;;;;;;3.05;2.10;;;31.60;97.30;;;;;;4110189;28;20446;-70
2022/08/07 03:48:28;;;;;;;5.13;2.30;;;31.50;97.10;;;;;;4093134;28;20391;-69
2022/08/07 03:50:33;;;;;;;4.22;2.15;;;31.40;97.10;;;;;;4094500;28;20154;-67
2022/08/07 03:52:38;;;;;;;4.85;2.10;;;31.40;97.30;;;;;;4067544;29;20136;-66
2022/08/07 03:54:47;;;;;;;7.68;2.15;;;31.50;97.30;;;;;;4060920;29;20036;-69
2022/08/07 03:57:01;;;;;;;5.78;2.35;;;31.40;96.80;;;;;;4110841;28;20051;-67
2022/08/07 03:59:12;;;;;;;3.67;1.90;;;31.40;96.80;;;;;;4075413;29;20527;-69
2022/08/07 04:01:23;;;;;;;5.57;2.30;;;31.30;96.70;;;;;;4107082;28;20051;-67
2022/08/07 04:03:28;;;;;;;3.28;2.20;;;31.30;97.10;;;;;;4117077;28;20154;-68
2022/08/07 04:05:53;;;;;;;3.55;2.10;;;31.30;97.10;;;;;;4112393;28;20094;-68
2022/08/07 04:08:05;;;;;;;4.15;2.08;;;31.40;97.00;;;;;;4097355;28;20096;-67
2022/08/07 04:10:14;;;;;;;5.70;2.15;;;31.40;96.70;;;;;;4096969;28;20050;-67
2022/08/07 04:12:23;;;;;;;6.45;2.20;;;31.40;96.70;;;;;;4103182;28;20043;-67
2022/08/07 04:14:33;;;;;;;5.55;2.65;;;31.40;96.60;;;;;;4120520;28;20085;-68
2022/08/07 04:16:48;;;;;;;6.28;2.25;;;31.50;96.70;;;;;;4160475;28;20041;-67
2022/08/07 04:19:02;;;;;;;3.72;2.17;;;31.50;96.60;;;;;;4129770;28;20054;-67
2022/08/07 04:21:26;;;;;;;6.05;2.08;;;31.50;96.60;;;;;;4162141;28;20090;-67
2022/08/07 04:23:37;;;;;;;5.10;2.10;;;31.50;96.70;;;;;;4134114;28;20050;-69
2022/08/07 04:26:02;;;;;;;5.45;2.30;;;31.70;96.70;;;;;;4160272;28;20041;-66
2022/08/07 04:28:10;;;;;;;4.68;2.20;;;31.70;96.90;;;;;;4145606;28;20099;-66
2022/08/07 04:30:17;;;;;;;5.80;2.38;;;31.70;96.80;;;;;;4160760;28;20056;-67
2022/08/07 04:32:53;;;;;;;4.18;1.98;;;31.80;96.60;;;;;;4130676;28;20124;-67
2022/08/07 04:35:06;;;;;;;4.68;2.20;;;31.90;96.60;;;;;;4129971;28;20038;-66
2022/08/07 04:37:14;;;;;;;5.18;2.10;;;32.00;96.80;;;;;;4128961;28;20046;-66
2022/08/07 04:39:28;;;;;;;2.80;1.90;;;32.10;96.60;;;;;;4162323;28;20112;-66
2022/08/07 04:41:42;;;;;;;4.05;2.00;;;32.00;96.30;;;;;;4128502;28;20104;-66
2022/08/07 04:43:54;;;;;;;4.30;1.90;;;32.00;96.50;;;;;;4157905;28;20163;-66
2022/08/07 04:46:38;;;;;;;3.92;1.75;;;32.10;96.50;;;;;;4128202;28;20066;-66
2022/08/07 04:49:34;;;;;;;4.47;1.83;;;32.20;96.20;;;;;;4137503;28;20087;-65
2022/08/07 04:52:02;;;;;;;5.35;1.90;;;32.20;95.90;;;;;;4128555;28;20054;-66
2022/08/07 04:54:20;;;;;;;2.92;1.52;;;32.40;95.70;;;;;;4129191;28;20142;-66
2022/08/07 04:57:01;;;;;;;4.43;2.08;;;32.50;95.70;;;;;;4128291;28;20129;-63
2022/08/07 04:59:50;;;;;;;4.20;2.20;;;32.60;95.60;;;;;;4133168;28;20074;-63
2022/08/07 05:02:47;;;;;;;3.63;2.10;;;32.60;95.80;;;;;;4129943;28;20047;-64
2022/08/07 05:05:26;;;;;;;4.78;2.00;;;32.60;95.70;;;;;;4129068;28;20061;-64
2022/08/07 05:08:09;;;;;;;3.65;2.08;;;32.50;95.20;;;;;;4131585;28;20041;-63
2022/08/07 05:10:28;;;;;;;3.88;2.10;;;32.60;95.70;;;;;;4139264;28;20034;-63
2022/08/07 05:12:48;;;;;;;4.28;2.05;;;32.60;95.50;;;;;;4129544;28;20038;-63
2022/08/07 05:15:20;;;;;;;2.88;1.80;;;32.50;95.50;;;;;;4127899;28;20533;-64
2022/08/07 05:17:37;;;;;;;5.15;2.25;;;32.60;95.20;;;;;;4113407;28;20050;-63
2022/08/07 05:20:02;;;;;;;4.88;2.17;;;32.40;95.00;;;;;;4134523;28;20054;-63
2022/08/07 05:22:15;;;;;;;3.83;2.03;;;32.30;95.20;;;;;;4130967;28;20530;-62
2022/08/07 05:24:34;;;;;;;3.95;1.85;;;32.30;95.40;;;;;;4133668;28;20488;-64
2022/08/07 05:26:42;;;;;;;3.65;1.95;;;32.20;95.10;;;;;;4134259;28;20104;-64
2022/08/07 05:28:52;;;;;;;2.70;1.50;;;32.20;95.20;;;;;;4139324;28;20038;-63
2022/08/07 05:31:02;;;;;;;2.17;1.60;;;32.20;95.40;;;;;;4129770;28;20077;-63
2022/08/07 05:33:08;;;;;;;4.50;2.00;;;32.10;95.20;;;;;;4128326;28;20038;-65
2022/08/07 05:35:17;;;;;;;4.57;1.95;;;32.10;95.00;;;;;;4127558;28;20060;-62
2022/08/07 05:37:39;;;;;;;3.50;1.73;;;32.00;94.80;;;;;;4128396;28;20109;-63
2022/08/07 05:39:47;;;;;;;3.45;1.88;;;31.90;95.40;;;;;;4109052;28;20466;-64
2022/08/07 05:42:13;;;;;;;3.22;1.98;;;31.90;95.50;;;;;;4153927;28;20052;-64
2022/08/07 05:44:36;;;;;;;7.80;2.90;;;32.00;95.70;;;;;;4133262;28;20129;-63
2022/08/07 05:47:03;;;;;;;6.15;2.65;;;32.10;96.00;;;;;;4112932;28;20085;-62
2022/08/07 05:49:23;;;;;;;4.03;2.30;;;32.10;96.40;;;;;;4093910;28;20039;-64
2022/08/07 05:51:31;;;;;;;2.88;1.92;;;32.10;96.70;;;;;;4082114;28;20055;-63
2022/08/07 05:53:43;;;;;;;;;;;32.10;96.80;;;;;;4097122;28;20050;-63
2022/08/07 05:56:08;;;;;;;3.13;1.70;;;32.10;96.60;;;;;;4115072;28;19954;-63
2022/08/07 05:58:21;;;;;;;4.80;1.63;;;32.10;96.70;;;;;;4105067;28;20075;-65
2022/08/07 06:00:42;;;;;;;5.65;3.67;;;32.00;96.40;;;;;;4104382;28;20556;-64
2022/08/07 06:02:53;;;;;;;5.80;4.20;;;32.20;96.40;;;;;;4111145;28;20047;-64
2022/08/07 06:05:09;;;;;;;5.90;2.90;;;32.10;96.10;;;;;;4105848;28;20073;-64
2022/08/07 06:07:23;;;;;;;6.68;2.78;;;32.20;96.00;;;;;;4099218;28;20043;-64
2022/08/07 06:09:48;;;;;;;3.35;2.17;;;32.30;96.40;;;;;;4116856;28;20050;-64
2022/08/07 06:12:08;;;;;;;5.03;2.20;;;32.30;96.00;;;;;;4114902;28;20173;-62
2022/08/07 06:14:18;;;;;;;5.97;1.77;;;32.30;95.40;;;;;;4098789;28;20054;-64
2022/08/07 06:16:35;;;;;;;3.25;2.13;;;32.10;95.60;;;;;;4100295;28;20098;-65
2022/08/07 06:18:42;;;;;;;4.78;2.40;;;32.30;95.40;;;;;;4119220;28;20069;-65
2022/08/07 06:21:01;;;;;;;3.33;1.95;;;32.30;95.20;;;;;;4131309;28;20037;-64
2022/08/07 06:23:27;;;;;;;4.53;2.70;;;32.40;95.10;;;;;;4134601;28;20153;-63
2022/08/07 06:25:54;;;;;;;5.57;2.90;;;32.50;95.20;;;;;;4135133;28;20042;-66
2022/08/07 06:28:07;;;;;;;4.78;2.10;;;32.50;95.30;;;;;;4137341;28;20072;-64
2022/08/07 06:30:16;;;;;;;6.00;2.30;;;32.40;94.80;;;;;;4135546;28;20391;-63
2022/08/07 06:32:42;;;;;;;4.20;1.85;;;32.30;94.40;;;;;;4136384;28;20047;-64
2022/08/07 06:34:48;;;;;;;5.00;2.38;;;32.30;94.30;;;;;;4137221;28;20044;-63
2022/08/07 06:36:53;;;;;;;4.53;2.17;;;32.30;94.70;;;;;;4135858;28;20386;-62
2022/08/07 06:39:03;;;;;;;5.95;2.10;;;32.40;94.80;;;;;;4146951;28;20051;-62
2022/08/07 06:41:51;;;;;;;4.05;2.50;;;32.50;94.80;;;;;;4118113;28;20061;-63
2022/08/07 06:44:27;;;;;;;3.38;2.10;;;32.60;94.70;;;;;;4135827;28;20046;-63
2022/08/07 06:46:42;;;;;;;3.55;2.05;;;32.60;94.90;;;;;;4118835;28;20049;-62
2022/08/07 06:48:56;;;;;;;4.28;2.00;;;32.60;94.60;;;;;;4137198;28;20054;-63
2022/08/07 06:51:06;;;;;;;3.90;2.38;;;32.60;94.20;;;;;;4121135;28;20039;-62
2022/08/07 06:53:18;;;;;;;5.32;2.20;;;32.40;94.90;;;;;;4115647;28;20457;-62
2022/08/07 06:55:45;;;;;;;5.45;2.17;;;32.40;94.30;;;;;;4120285;28;20878;-63
2022/08/07 06:58:10;;;;;;;3.38;1.85;;;32.40;94.30;;;;;;4114818;28;20093;-64
2022/08/07 07:00:30;;;;;;;6.93;2.45;;;32.60;94.20;;;;;;4118408;28;20062;-61
2022/08/07 07:02:36;;;;;;;13.80;2.78;;;32.60;94.00;;;;;;4138345;28;20046;-63
2022/08/07 07:05:00;;;;;;;7.15;2.28;;;32.60;94.40;;;;;;4120078;28;20050;-63
2022/08/07 07:07:06;;;;;;;4.57;2.20;;;32.70;94.30;;;;;;4118985;28;20054;-63
2022/08/07 07:09:26;;;;;;;5.25;1.77;;;32.60;94.30;;;;;;4122451;28;20050;-63
2022/08/07 07:11:35;;;;;;;3.47;2.00;;;32.60;94.10;;;;;;4118678;28;20076;-63
2022/08/07 07:14:02;;;;;;;2.90;1.80;;;32.70;94.00;;;;;;4065542;29;20429;-65
2022/08/07 07:16:14;;;;;;;6.85;1.88;;;32.80;93.70;;;;;;4081334;29;20471;-64
2022/08/07 07:18:29;;;;;;;3.53;1.70;;;32.80;93.90;;;;;;4082577;29;20070;-63
2022/08/07 07:20:53;;;;;;;4.28;2.10;;;32.70;94.10;;;;;;4111833;28;20058;-62
2022/08/07 07:22:58;;;;;;;4.20;2.10;;;32.70;94.00;;;;;;4113974;28;20109;-63
2022/08/07 07:25:23;;;;;;;4.13;1.92;;;32.60;94.00;;;;;;4129365;28;20081;-62
2022/08/07 07:28:20;;;;;;;6.47;2.38;;;32.40;93.80;;;;;;4097032;29;20094;-62
2022/08/07 07:30:51;;;;;;;3.88;2.10;;;32.50;93.90;;;;;;4084195;29;20047;-63
2022/08/07 07:32:57;;;;;;;4.30;2.17;;;32.50;94.00;;;;;;4080709;29;20048;-62
2022/08/07 07:35:03;;;;;;;3.85;2.05;;;32.60;94.00;;;;;;4080752;29;20525;-63
2022/08/07 07:37:10;;;;;;;3.42;1.88;;;32.60;93.90;;;;;;4081157;29;20067;-62
2022/08/07 07:39:37;;;;;;;7.15;2.10;;;32.50;93.70;;;;;;4034466;29;20242;-62
2022/08/07 07:41:56;;;;;;;5.22;2.00;;;32.50;94.30;;;;;;4038681;29;20093;-62
2022/08/07 07:44:21;;;;;;;3.97;2.20;;;32.40;94.50;;;;;;4038353;29;20055;-62
2022/08/07 07:46:34;;;;;;;5.10;2.63;;;32.30;94.60;;;;;;4041061;29;20044;-63
2022/08/07 07:48:59;;;;;;;4.07;2.50;;;32.30;94.80;;;;;;4038906;29;20171;-62
2022/08/07 07:51:24;;;;;;;8.13;2.70;;;32.30;94.90;;;;;;4049900;29;20565;-62
2022/08/07 07:53:30;;;;;;;4.20;2.22;;;32.30;94.90;;;;;;4035874;29;20084;-63
2022/08/07 07:55:37;;;;;;;3.25;2.10;;;32.20;95.50;;;;;;4070224;29;20047;-64
2022/08/07 07:57:57;;;;;;;5.18;2.08;;;32.10;96.20;;;;;;4072246;29;20048;-63
2022/08/07 08:00:04;;;;;;;3.35;2.13;;;32.10;97.00;;;;;;4083941;29;20094;-63
2022/08/07 08:02:14;;;;;;;4.28;2.10;;;31.90;97.90;;;;;;4103941;28;20126;-63
2022/08/07 08:04:38;;;;;;;3.67;2.70;;;31.80;98.10;;;;;;4101307;28;20039;-62
2022/08/07 08:06:46;;;;;;;4.68;2.30;;;31.70;98.40;;;;;;4097889;28;20054;-63
2022/08/07 08:08:55;;;;;;;4.65;2.58;;;31.70;98.30;;;;;;4095409;29;20051;-62
2022/08/07 08:11:06;;;;;;;4.68;2.10;;;31.70;98.20;;;;;;4095461;29;20818;-63
2022/08/07 08:13:20;;;;;;;3.35;2.10;;;31.80;98.10;;;;;;4097666;28;20054;-64
2022/08/07 08:15:28;;;;;;;5.63;2.22;;;31.70;98.30;;;;;;4103012;28;20055;-61
2022/08/07 08:17:55;;;;;;;4.10;2.60;;;31.70;98.60;;;;;;4088858;28;20145;-62
2022/08/07 08:20:21;;;;;;;4.82;2.95;;;31.70;98.70;;;;;;4090661;28;20425;-62
2022/08/07 08:27:36;;;;;;;3.55;1.90;;;31.80;98.20;;;;;;4134068;28;20416;-63
2022/08/07 08:29:45;;;;;;;2.58;1.20;;;31.80;97.50;;;;;;4125352;28;20676;-63
2022/08/07 08:31:58;;;;;;;2.17;1.50;;;31.80;97.30;;;;;;4135548;28;20532;-63
2022/08/07 08:34:21;;;;;;;3.97;1.63;;;31.80;97.20;;;;;;4123488;28;20046;-63
2022/08/07 08:36:32;;;;;;;4.60;1.42;;;31.70;97.00;;;;;;4126995;28;20101;-62
2022/08/07 08:38:41;;;;;;;4.07;1.70;;;31.70;96.60;;;;;;4127223;28;20163;-62
2022/08/07 08:41:10;;;;;;;2.33;1.52;;;31.60;96.80;;;;;;4124234;28;20054;-63
2022/08/07 08:43:32;;;;;;;4.72;1.45;;;31.60;96.80;;;;;;4149340;28;20053;-64
2022/08/07 08:46:10;;;;;;;3.20;1.52;;;31.50;97.00;;;;;;4143685;28;20054;-63
2022/08/07 08:48:29;;;;;;;3.20;1.67;;;31.50;97.40;;;;;;4126238;28;20095;-64
2022/08/07 08:50:51;;;;;;;4.00;2.15;;;31.40;97.90;;;;;;4151255;28;20052;-64
2022/08/07 08:53:04;;;;;;;5.47;2.22;;;31.50;97.80;;;;;;4127043;28;20587;-63
2022/08/07 08:55:31;;;;;;;5.53;1.83;;;31.40;97.40;;;;;;4131768;28;20042;-63
2022/08/07 08:58:20;;;;;;;5.35;1.83;;;31.30;97.60;;;;;;4133460;28;20045;-63
2022/08/07 09:00:35;;;;;;;11.00;1.60;;;31.20;98.10;;;;;;4133058;28;20469;-64
2022/08/07 09:02:59;;;;;;;6.05;1.58;;;31.20;98.20;;;;;;4133103;28;20811;-64
2022/08/07 09:05:38;;;;;;;5.38;2.08;;;31.10;98.30;;;;;;4130947;28;20054;-63
2022/08/07 09:07:59;;;;;;;5.13;2.15;;;31.10;98.50;;;;;;4133780;28;20046;-63
2022/08/07 09:10:13;;;;;;;8.55;2.15;;;31.20;98.40;;;;;;4133863;28;20046;-64
2022/08/07 09:12:38;;;;;;;3.85;1.90;;;31.00;98.70;;;;;;4133072;28;20109;-63
2022/08/07 09:15:10;;;;;;;2.73;2.03;;;31.00;98.40;;;;;;4127576;28;20065;-63
2022/08/07 09:18:06;;;;;;;6.18;2.47;;;30.80;98.60;;;;;;4129376;28;20300;-63
2022/08/07 09:20:40;;;;;;;5.30;2.85;;;30.90;98.60;;;;;;4126861;28;20062;-63
2022/08/07 09:23:32;;;;;;;4.47;2.97;;;30.90;99.00;;;;;;4127213;28;20095;-64
2022/08/07 09:26:24;;;;;;;4.47;2.70;;;30.60;99.20;;;;;;4093614;28;20047;-63
2022/08/07 09:28:34;;;;;;;4.47;2.08;;;30.00;99.00;;;;;;4084364;28;20514;-63
2022/08/07 09:31:24;;;;;;;3.72;2.03;;;29.10;99.90;;;;;;4089457;29;20051;-62
2022/08/07 09:34:12;;;;;;;6.72;2.40;;;28.80;99.90;;;;;;4091756;28;20047;-63
2022/08/07 09:36:35;;;;;;;10.45;4.10;;;28.60;99.90;;;;;;4089835;28;20073;-61
2022/08/07 09:39:03;;;;;;;8.27;2.95;;;28.80;99.90;;;;;;4094594;28;20786;-62
2022/08/07 09:41:48;;;;;;;10.73;3.22;;;28.50;99.90;;;;;;4088193;28;20146;-62
2022/08/07 09:44:32;;;;;;;10.35;3.70;;;28.70;99.90;;;;;;4088805;29;20051;-62
2022/08/07 09:47:22;;;;;;;12.48;4.53;;;28.90;99.90;;;;;;4088159;28;20043;-62
2022/08/07 09:50:03;;;;;;;8.38;4.35;;;28.80;99.90;;;;;;4044298;29;20052;-61
2022/08/07 09:52:48;;;;;;;7.55;4.80;;;28.80;99.90;;;;;;4044558;29;20053;-61
2022/08/07 09:55:09;;;;;;;8.07;5.13;;;28.80;99.90;;;;;;4061868;29;20048;-61
2022/08/07 09:58:10;;;;;;;11.32;4.72;;;29.00;99.90;;;;;;4064676;29;20052;-61
2022/08/07 10:00:20;;;;;;;7.88;4.70;;;29.00;99.90;;;;;;4064921;29;20463;-62
2022/08/07 10:02:56;;;;;;;8.38;4.53;;;29.10;99.90;;;;;;4064696;29;20139;-61
2022/08/07 10:05:37;;;;;;;9.55;5.05;;;29.30;99.90;;;;;;4110501;28;20062;-62
2022/08/07 10:08:34;;;;;;;10.68;6.15;;;29.10;99.90;;;;;;4099128;28;20045;-62
2022/08/07 10:10:58;;;;;;;12.48;5.53;;;29.20;99.90;;;;;;4096600;28;20051;-62
2022/08/07 10:13:51;;;;;;;9.20;5.63;;;29.30;99.90;;;;;;4111046;28;20046;-62
2022/08/07 10:16:36;;;;;;;9.50;5.07;;;29.30;99.90;;;;;;4110945;28;20051;-62
2022/08/07 10:18:51;;;;;;;12.05;5.78;;;29.30;99.90;;;;;;4110871;28;20061;-61
2022/08/07 10:21:15;;;;;;;11.68;6.30;;;29.30;99.90;;;;;;4123283;28;20051;-62
2022/08/07 10:23:49;;;;;;;11.20;6.35;;;29.30;99.90;;;;;;4136973;28;20754;-65
2022/08/07 10:26:26;;;;;;;12.32;6.10;;;29.40;99.90;;;;;;4138570;28;20058;-65
2022/08/07 10:29:10;;;;;;;8.70;5.90;;;29.50;99.90;;;;;;4139035;28;20103;-63
2022/08/07 10:31:33;;;;;;;10.50;6.10;;;29.60;99.90;;;;;;4135773;28;20043;-64
2022/08/07 10:33:55;;;;;;;8.25;5.50;;;29.60;99.90;;;;;;4137501;28;20760;-62
2022/08/07 10:36:23;;;;;;;8.32;5.47;;;29.60;99.90;;;;;;4137205;28;20096;-64
2022/08/07 10:38:57;;;;;;;7.75;5.32;;;29.60;99.90;;;;;;4166400;28;20048;-63
2022/08/07 10:41:19;;;;;;;11.30;7.25;;;29.50;99.90;;;;;;4136830;28;20050;-63
2022/08/07 10:43:59;;;;;;;7.82;5.38;;;29.40;99.90;;;;;;4135755;28;20069;-63
2022/08/07 10:46:18;;;;;;;7.78;5.35;;;29.40;99.90;;;;;;4099303;28;20065;-64
2022/08/07 10:48:55;;;;;;;7.78;5.55;;;29.40;99.90;;;;;;4135292;28;20088;-65
2022/08/07 10:51:14;;;;;;;8.98;4.60;;;29.40;99.90;;;;;;4133750;28;20042;-64
2022/08/07 10:54:00;;;;;;;7.80;4.60;;;29.40;99.90;;;;;;4132542;28;20137;-64
2022/08/07 10:56:24;;;;;;;5.72;4.10;;;29.40;99.90;;;;;;4132008;28;20046;-64
2022/08/07 10:59:13;;;;;;;8.75;4.22;;;29.40;99.90;;;;;;4134301;28;20906;-63
2022/08/07 11:01:31;;;;;;;8.05;3.88;;;29.40;99.90;;;;;;4130286;28;20092;-63
2022/08/07 11:04:20;;;;;;;6.32;4.25;;;29.30;99.90;;;;;;4131481;28;20077;-63
2022/08/07 11:06:55;;;;;;;7.45;4.13;;;29.30;99.90;;;;;;4131662;28;20157;-63
2022/08/07 11:09:17;;;;;;;6.25;4.03;;;29.30;99.90;;;;;;4133511;28;20046;-63
2022/08/07 11:11:47;;;;;;;6.93;4.25;;;29.40;99.90;;;;;;4129529;28;20050;-61
2022/08/07 11:14:15;;;;;;;6.95;4.80;;;29.40;99.90;;;;;;4135957;28;20173;-61
2022/08/07 11:17:05;;;;;;;9.80;4.30;;;29.30;99.90;;;;;;4128481;28;20049;-62
2022/08/07 11:19:44;;;;;;;7.90;4.57;;;29.30;99.90;;;;;;4131809;28;20047;-63
2022/08/07 11:22:15;;;;;;;12.38;4.50;;;29.30;99.90;;;;;;4130209;28;20539;-62
2022/08/07 11:24:49;;;;;;;7.57;4.32;;;29.10;99.90;;;;;;4132155;28;20878;-61
2022/08/07 11:27:16;;;;;;;7.78;4.55;;;29.20;99.90;;;;;;4135332;28;20060;-64
2022/08/07 11:29:52;;;;;;;9.15;4.68;;;29.20;99.90;;;;;;4129140;28;20038;-65
2022/08/07 11:32:54;;;;;;;6.95;4.18;;;29.20;99.90;;;;;;4135124;28;20054;-62
2022/08/07 11:35:02;;;;;;;6.85;3.78;;;29.30;99.90;;;;;;4130390;28;20042;-63
2022/08/07 11:37:35;;;;;;;8.43;3.85;;;29.30;99.90;;;;;;4077046;29;20059;-63
2022/08/07 11:40:14;;;;;;;6.47;4.13;;;29.20;99.90;;;;;;4129083;28;20049;-63
2022/08/07 11:42:35;;;;;;;6.97;3.60;;;29.10;99.90;;;;;;4129438;28;20044;-62
2022/08/07 11:45:05;;;;;;;7.15;4.60;;;29.10;99.90;;;;;;4129725;28;20126;-64
2022/08/07 11:47:46;;;;;;;7.43;4.13;;;29.10;99.90;;;;;;4131005;28;20057;-65
2022/08/07 11:50:23;;;;;;;6.95;4.20;;;29.10;99.90;;;;;;4131219;28;20049;-63
2022/08/07 11:53:02;;;;;;;5.47;4.25;;;29.20;99.90;;;;;;4132037;28;20673;-63
2022/08/07 11:55:31;;;;;;;8.45;4.85;;;29.10;99.90;;;;;;4131729;28;20042;-63
2022/08/07 11:58:10;;;;;;;10.35;5.32;;;29.10;99.90;;;;;;4131540;28;20566;-62
2022/08/07 12:00:50;;;;;;;8.75;5.05;;;28.90;99.90;;;;;;4134732;28;20148;-64
2022/08/07 12:03:36;;;;;;;9.55;5.22;;;29.00;99.90;;;;;;4132576;28;20054;-64
2022/08/07 12:06:15;;;;;;;7.35;4.70;;;28.90;99.90;;;;;;4129390;28;20069;-62
2022/08/07 12:08:53;;;;;;;7.30;4.82;;;29.00;99.90;;;;;;4136169;28;20104;-63
2022/08/07 12:11:10;;;;;;;9.20;4.97;;;29.00;99.90;;;;;;4133755;28;20057;-63
2022/08/07 12:13:42;;;;;;;10.50;5.07;;;29.00;99.90;;;;;;4135261;28;20051;-63